الصفحة الرئيسية
METAR-TAF:

METAR-TAF

مطار :

سان خوسيه, كوستاريكا

دائرة عرض: 09-57N, خط طول: 084-09W, ارتفاع: 994 متر

مراقبة الطقس الحالي

تاريخ ووقت الإصدار 1ساعة و 7 دقيقة قبل الساعة 18:00UTC
ريح 7 عقدة من الشرق/الجنوب الشرقي
درجة الحرارة 20°درجة مئوية
الرطوبة 78%
ضغط 1018 hPa
الرؤية 10 كم أو أكثر
غيوم قليلة على ارتفاع 2000 قدم
غيوم مفككة على ارتفاع 9000 قدم
مطر خفيف

METAR: MRPV 141800Z 11007KT 9999 -RA FEW020 BKN090 20/16 A3007 NOSIG

زمن: 13:07 (19:07 UTC)

توقعات

تاريخ ووقت الإصدار 2ساعات و 7 دقيقة قبل الساعة 17:00UTC
التوقعات صالحة من14 الساعة 18 UTC إلى 15 الساعة 18 UTC
ريح 13 عقدة من الشرق/الشمال الشرقي
الرؤية 10 كم أو أكثر
غيوم قليلة على ارتفاع 2500 قدم
غيوم مفككة على ارتفاع 8000 قدم
مؤقت
من 14 الساعة 18 UTC إلى 15 الساعة 01 UTC
الرؤية: 5000 متر
مطر

TAF: MRPV 141700Z 1418/1518 07013KT 9999 FEW025 BKN080 TX26/1517Z TN18/1510Z TEMPO 1418/1501 5000 RA

أرصاد الطقس والتوقعات من أكثر من 4000 مطار (تقارير الطقس للمطار METAR والتنبؤ بالطقس بالمطارTAF).

المحطات المتاحة هي النقط الصفراء والحمراء على الخريطة.

حرك المؤشر فوق النقطة لمعرفة اسم المحطة.

ثم انقر لمعرفة أرصاد وتوقعات الطقس.

لتغيير الخارطة: اضغط على الأزرار الخضراء مع رمز الصليب الأسود للتكبير. على الزر الأخضر مع شرطة للتصغير، أو على الأسهم الخضراء للخرائط المجاورة.


METAR-TAF: